sensor_id;sensor_type;location;lat;lon;timestamp;pressure;altitude;pressure_sealevel;temperature;humidity
46129;BME280;31860;45.186;5.790;2022-09-19T00:01:29;99335.53;;;17.14;52.35
46129;BME280;31860;45.186;5.790;2022-09-19T00:04:01;99332.94;;;17.13;52.58
46129;BME280;31860;45.186;5.790;2022-09-19T00:06:28;99334.72;;;17.12;52.40
46129;BME280;31860;45.186;5.790;2022-09-19T00:08:55;99333.91;;;17.10;52.47
46129;BME280;31860;45.186;5.790;2022-09-19T00:11:22;99329.50;;;17.09;52.56
46129;BME280;31860;45.186;5.790;2022-09-19T00:13:50;99334.88;;;17.06;52.49
46129;BME280;31860;45.186;5.790;2022-09-19T00:16:23;99332.25;;;17.04;52.67
46129;BME280;31860;45.186;5.790;2022-09-19T00:18:50;99333.22;;;17.02;52.50
46129;BME280;31860;45.186;5.790;2022-09-19T00:21:20;99330.63;;;17.00;52.71
46129;BME280;31860;45.186;5.790;2022-09-19T00:23:46;99330.63;;;16.99;52.73
46129;BME280;31860;45.186;5.790;2022-09-19T00:26:30;99332.41;;;16.98;52.80
46129;BME280;31860;45.186;5.790;2022-09-19T00:28:55;99333.28;;;16.99;52.72
46129;BME280;31860;45.186;5.790;2022-09-19T00:31:21;99328.91;;;16.98;52.65
46129;BME280;31860;45.186;5.790;2022-09-19T00:33:47;99335.94;;;16.97;52.74
46129;BME280;31860;45.186;5.790;2022-09-19T00:36:14;99335.06;;;16.97;52.73
46129;BME280;31860;45.186;5.790;2022-09-19T00:38:41;99328.94;;;16.96;52.81
46129;BME280;31860;45.186;5.790;2022-09-19T00:41:06;99329.69;;;17.01;52.67
46129;BME280;31860;45.186;5.790;2022-09-19T00:46:29;99336.91;;;16.95;52.96
46129;BME280;31860;45.186;5.790;2022-09-19T00:49:00;99328.16;;;16.93;52.89
46129;BME280;31860;45.186;5.790;2022-09-19T00:51:30;99325.63;;;16.88;53.07
46129;BME280;31860;45.186;5.790;2022-09-19T00:54:08;99326.59;;;16.84;53.34
46129;BME280;31860;45.186;5.790;2022-09-19T00:56:41;99322.28;;;16.80;53.44
46129;BME280;31860;45.186;5.790;2022-09-19T00:59:08;99323.19;;;16.79;53.22
46129;BME280;31860;45.186;5.790;2022-09-19T01:01:34;99322.28;;;16.80;53.16
46129;BME280;31860;45.186;5.790;2022-09-19T01:04:00;99319.63;;;16.80;53.14
46129;BME280;31860;45.186;5.790;2022-09-19T01:06:35;99316.13;;;16.81;53.20
46129;BME280;31860;45.186;5.790;2022-09-19T01:12:22;99317.00;;;16.80;53.38
46129;BME280;31860;45.186;5.790;2022-09-19T01:15:32;99317.03;;;16.79;53.62
46129;BME280;31860;45.186;5.790;2022-09-19T01:17:57;99309.22;;;16.74;53.15
46129;BME280;31860;45.186;5.790;2022-09-19T01:20:38;99310.22;;;16.70;53.48
46129;BME280;31860;45.186;5.790;2022-09-19T01:23:29;99309.38;;;16.67;53.66
46129;BME280;31860;45.186;5.790;2022-09-19T01:29:03;99312.16;;;16.62;53.85
46129;BME280;31860;45.186;5.790;2022-09-19T01:31:35;99305.22;;;16.58;53.48
46129;BME280;31860;45.186;5.790;2022-09-19T01:34:08;99299.97;;;16.57;53.61
46129;BME280;31860;45.186;5.790;2022-09-19T01:39:09;99309.72;;;16.53;53.78
46129;BME280;31860;45.186;5.790;2022-09-19T01:41:35;99309.78;;;16.50;53.69
46129;BME280;31860;45.186;5.790;2022-09-19T01:44:02;99313.25;;;16.52;53.61
46129;BME280;31860;45.186;5.790;2022-09-19T01:46:51;99308.94;;;16.48;53.75
46129;BME280;31860;45.186;5.790;2022-09-19T01:55:01;99313.50;;;16.39;54.14
46129;BME280;31860;45.186;5.790;2022-09-19T02:00:20;99306.72;;;16.29;54.23
46129;BME280;31860;45.186;5.790;2022-09-19T02:08:59;99313.06;;;16.19;55.10
46129;BME280;31860;45.186;5.790;2022-09-19T02:11:29;99314.81;;;16.20;54.42
46129;BME280;31860;45.186;5.790;2022-09-19T02:14:06;99320.06;;;16.21;54.82
46129;BME280;31860;45.186;5.790;2022-09-19T02:16:42;99321.91;;;16.16;54.60
46129;BME280;31860;45.186;5.790;2022-09-19T02:19:20;99318.41;;;16.14;55.18
46129;BME280;31860;45.186;5.790;2022-09-19T02:21:50;99315.03;;;16.09;54.41
46129;BME280;31860;45.186;5.790;2022-09-19T02:24:23;99319.53;;;16.04;54.63
46129;BME280;31860;45.186;5.790;2022-09-19T02:26:52;99316.06;;;16.02;54.58
46129;BME280;31860;45.186;5.790;2022-09-19T02:29:25;99314.34;;;15.99;54.89
46129;BME280;31860;45.186;5.790;2022-09-19T02:31:56;99321.34;;;15.99;54.71
46129;BME280;31860;45.186;5.790;2022-09-19T02:34:22;99315.28;;;15.97;54.83
46129;BME280;31860;45.186;5.790;2022-09-19T02:40:19;99315.22;;;16.00;54.99
46129;BME280;31860;45.186;5.790;2022-09-19T02:42:36;99316.94;;;16.01;55.42
46129;BME280;31860;45.186;5.790;2022-09-19T02:47:50;99318.69;;;16.02;55.42
46129;BME280;31860;45.186;5.790;2022-09-19T02:50:25;99326.63;;;16.00;55.37
46129;BME280;31860;45.186;5.790;2022-09-19T02:52:56;99314.34;;;15.99;54.97
46129;BME280;31860;45.186;5.790;2022-09-19T02:55:26;99313.47;;;15.99;55.11
46129;BME280;31860;45.186;5.790;2022-09-19T02:57:55;99314.41;;;15.96;55.11
46129;BME280;31860;45.186;5.790;2022-09-19T03:00:23;99315.28;;;15.97;54.85
46129;BME280;31860;45.186;5.790;2022-09-19T03:03:03;99312.66;;;15.97;55.38
46129;BME280;31860;45.186;5.790;2022-09-19T03:05:51;99310.03;;;15.95;54.97
46129;BME280;31860;45.186;5.790;2022-09-19T03:08:21;99310.06;;;15.94;55.15
46129;BME280;31860;45.186;5.790;2022-09-19T03:10:52;99306.66;;;15.89;55.09
46129;BME280;31860;45.186;5.790;2022-09-19T03:13:19;99309.31;;;15.86;54.99
46129;BME280;31860;45.186;5.790;2022-09-19T03:16:04;99304.13;;;15.83;55.65
46129;BME280;31860;45.186;5.790;2022-09-19T03:18:31;99300.66;;;15.81;55.35
46129;BME280;31860;45.186;5.790;2022-09-19T03:21:02;99300.69;;;15.79;55.34
46129;BME280;31860;45.186;5.790;2022-09-19T03:23:32;99297.16;;;15.80;55.48
46129;BME280;31860;45.186;5.790;2022-09-19T03:26:00;99296.31;;;15.78;55.41
46129;BME280;31860;45.186;5.790;2022-09-19T03:28:27;99298.09;;;15.78;55.25
46129;BME280;31860;45.186;5.790;2022-09-19T03:30:52;99296.34;;;15.77;55.32
46129;BME280;31860;45.186;5.790;2022-09-19T03:33:25;99296.41;;;15.74;55.40
46129;BME280;31860;45.186;5.790;2022-09-19T03:35:51;99304.34;;;15.72;55.41
46129;BME280;31860;45.186;5.790;2022-09-19T03:38:18;99303.50;;;15.70;55.38
46129;BME280;31860;45.186;5.790;2022-09-19T03:40:43;99302.69;;;15.67;55.60
46129;BME280;31860;45.186;5.790;2022-09-19T03:43:08;99303.59;;;15.66;55.63
46129;BME280;31860;45.186;5.790;2022-09-19T03:45:34;99299.19;;;15.66;55.75
46129;BME280;31860;45.186;5.790;2022-09-19T03:48:00;99300.00;;;15.70;55.67
46129;BME280;31860;45.186;5.790;2022-09-19T03:50:26;99295.59;;;15.70;55.34
46129;BME280;31860;45.186;5.790;2022-09-19T03:52:51;99294.69;;;15.71;55.35
46129;BME280;31860;45.186;5.790;2022-09-19T03:55:17;99294.72;;;15.70;55.37
46129;BME280;31860;45.186;5.790;2022-09-19T03:57:43;99291.25;;;15.68;55.39
46129;BME280;31860;45.186;5.790;2022-09-19T04:00:09;99292.13;;;15.68;55.39
46129;BME280;31860;45.186;5.790;2022-09-19T04:02:34;99286.03;;;15.66;55.31
46129;BME280;31860;45.186;5.790;2022-09-19T04:05:00;99292.22;;;15.64;55.59
46129;BME280;31860;45.186;5.790;2022-09-19T04:07:27;99304.53;;;15.62;55.45
46129;BME280;31860;45.186;5.790;2022-09-19T04:09:53;99297.56;;;15.58;55.65
46129;BME280;31860;45.186;5.790;2022-09-19T04:12:22;99309.06;;;15.55;55.88
46129;BME280;31860;45.186;5.790;2022-09-19T04:14:47;99305.63;;;15.52;55.60
46129;BME280;31860;45.186;5.790;2022-09-19T04:17:13;99305.63;;;15.50;56.06
46129;BME280;31860;45.186;5.790;2022-09-19T04:19:40;99316.22;;;15.47;56.00
46129;BME280;31860;45.186;5.790;2022-09-19T04:22:05;99315.31;;;15.48;56.04
46129;BME280;31860;45.186;5.790;2022-09-19T04:24:31;99317.09;;;15.48;55.89
46129;BME280;31860;45.186;5.790;2022-09-19T04:26:56;99320.59;;;15.47;56.17
46129;BME280;31860;45.186;5.790;2022-09-19T04:29:25;99321.56;;;15.43;56.06
46129;BME280;31860;45.186;5.790;2022-09-19T04:31:53;99319.78;;;15.43;56.16
46129;BME280;31860;45.186;5.790;2022-09-19T04:34:19;99326.81;;;15.43;56.17
46129;BME280;31860;45.186;5.790;2022-09-19T04:36:45;99324.16;;;15.46;56.40
46129;BME280;31860;45.186;5.790;2022-09-19T04:39:15;99319.75;;;15.45;56.58
46129;BME280;31860;45.186;5.790;2022-09-19T04:41:40;99330.28;;;15.45;56.67
46129;BME280;31860;45.186;5.790;2022-09-19T04:44:06;99332.97;;;15.43;56.59
46129;BME280;31860;45.186;5.790;2022-09-19T04:46:36;99329.44;;;15.43;56.43
46129;BME280;31860;45.186;5.790;2022-09-19T04:49:06;99332.06;;;15.43;56.51
46129;BME280;31860;45.186;5.790;2022-09-19T04:51:32;99338.22;;;15.43;56.57
46129;BME280;31860;45.186;5.790;2022-09-19T04:53:58;99335.63;;;15.39;56.64
46129;BME280;31860;45.186;5.790;2022-09-19T04:56:24;99333.91;;;15.38;56.64
46129;BME280;31860;45.186;5.790;2022-09-19T04:58:51;99332.13;;;15.37;56.44
46129;BME280;31860;45.186;5.790;2022-09-19T05:01:17;99339.22;;;15.35;56.65
46129;BME280;31860;45.186;5.790;2022-09-19T05:03:42;99339.22;;;15.33;56.61
46129;BME280;31860;45.186;5.790;2022-09-19T05:06:11;99338.38;;;15.33;56.38
46129;BME280;31860;45.186;5.790;2022-09-19T05:08:37;99339.22;;;15.33;56.66
46129;BME280;31860;45.186;5.790;2022-09-19T05:11:05;99333.09;;;15.34;56.63
46129;BME280;31860;45.186;5.790;2022-09-19T05:13:33;99333.09;;;15.34;56.32
46129;BME280;31860;45.186;5.790;2022-09-19T05:16:00;99333.13;;;15.31;56.45
46129;BME280;31860;45.186;5.790;2022-09-19T05:18:27;99332.34;;;15.26;56.25
46129;BME280;31860;45.186;5.790;2022-09-19T05:20:53;99325.41;;;15.20;56.51
46129;BME280;31860;45.186;5.790;2022-09-19T05:23:23;99326.31;;;15.19;56.97
46129;BME280;31860;45.186;5.790;2022-09-19T05:25:50;99329.88;;;15.17;56.63
46129;BME280;31860;45.186;5.790;2022-09-19T05:28:19;99326.28;;;15.21;56.59
46129;BME280;31860;45.186;5.790;2022-09-19T05:30:48;99325.34;;;15.23;56.53
46129;BME280;31860;45.186;5.790;2022-09-19T05:33:19;99330.50;;;15.30;56.37
46129;BME280;31860;45.186;5.790;2022-09-19T05:35:49;99337.53;;;15.31;56.36
46129;BME280;31860;45.186;5.790;2022-09-19T05:38:16;99333.22;;;15.27;56.39
46129;BME280;31860;45.186;5.790;2022-09-19T05:40:42;99340.22;;;15.26;56.36
46129;BME280;31860;45.186;5.790;2022-09-19T05:43:07;99337.63;;;15.25;56.44
46129;BME280;31860;45.186;5.790;2022-09-19T05:45:33;99346.47;;;15.20;56.14
46129;BME280;31860;45.186;5.790;2022-09-19T05:48:03;99339.44;;;15.21;56.44
46129;BME280;31860;45.186;5.790;2022-09-19T05:50:30;99346.47;;;15.20;56.51
46129;BME280;31860;45.186;5.790;2022-09-19T05:52:55;99351.75;;;15.19;56.64
46129;BME280;31860;45.186;5.790;2022-09-19T05:55:39;99353.50;;;15.18;56.54
46129;BME280;31860;45.186;5.790;2022-09-19T05:58:06;99348.25;;;15.18;56.86
46129;BME280;31860;45.186;5.790;2022-09-19T06:00:32;99350.91;;;15.17;56.81
46129;BME280;31860;45.186;5.790;2022-09-19T06:03:00;99345.69;;;15.15;56.78
46129;BME280;31860;45.186;5.790;2022-09-19T06:05:27;99349.19;;;15.14;56.80
46129;BME280;31860;45.186;5.790;2022-09-19T06:07:56;99345.69;;;15.14;56.93
46129;BME280;31860;45.186;5.790;2022-09-19T06:10:23;99347.50;;;15.12;57.01
46129;BME280;31860;45.186;5.790;2022-09-19T06:12:50;99344.84;;;15.13;57.09
46129;BME280;31860;45.186;5.790;2022-09-19T06:15:15;99354.50;;;15.11;57.09
46129;BME280;31860;45.186;5.790;2022-09-19T06:17:41;99345.69;;;15.14;56.88
46129;BME280;31860;45.186;5.790;2022-09-19T06:20:07;99345.69;;;15.14;56.97
46129;BME280;31860;45.186;5.790;2022-09-19T06:22:33;99347.47;;;15.13;56.73
46129;BME280;31860;45.186;5.790;2022-09-19T06:24:59;99349.16;;;15.17;56.86
46129;BME280;31860;45.186;5.790;2022-09-19T06:27:26;99349.94;;;15.23;56.80
46129;BME280;31860;45.186;5.790;2022-09-19T06:29:53;99337.56;;;15.28;56.64
46129;BME280;31860;45.186;5.790;2022-09-19T06:32:19;99342.72;;;15.34;56.79
46129;BME280;31860;45.186;5.790;2022-09-19T06:34:45;99348.78;;;15.40;56.51
46129;BME280;31860;45.186;5.790;2022-09-19T06:37:11;99346.03;;;15.49;56.18
46129;BME280;31860;45.186;5.790;2022-09-19T06:39:37;99344.13;;;15.56;56.08
46129;BME280;31860;45.186;5.790;2022-09-19T06:42:03;99345.72;;;15.66;56.92
46129;BME280;31860;45.186;5.790;2022-09-19T06:44:29;99342.88;;;15.76;57.03
46129;BME280;31860;45.186;5.790;2022-09-19T06:46:55;99336.50;;;15.88;57.00
46129;BME280;31860;45.186;5.790;2022-09-19T06:49:21;99339.81;;;16.00;56.55
46129;BME280;31860;45.186;5.790;2022-09-19T06:51:47;99336.94;;;16.11;56.54
46129;BME280;31860;45.186;5.790;2022-09-19T06:54:12;99337.66;;;16.19;56.33
46129;BME280;31860;45.186;5.790;2022-09-19T06:56:40;99335.75;;;16.26;56.11
46129;BME280;31860;45.186;5.790;2022-09-19T06:59:06;99338.22;;;16.33;56.06
46129;BME280;31860;45.186;5.790;2022-09-19T07:01:33;99342.50;;;16.40;55.95
46129;BME280;31860;45.186;5.790;2022-09-19T07:03:59;99338.88;;;16.46;56.10
46129;BME280;31860;45.186;5.790;2022-09-19T07:06:24;99336.97;;;16.52;56.10
46129;BME280;31860;45.186;5.790;2022-09-19T07:08:50;99335.00;;;16.62;55.78
46129;BME280;31860;45.186;5.790;2022-09-19T07:11:16;99334.84;;;16.69;55.98
46129;BME280;31860;45.186;5.790;2022-09-19T07:13:42;99335.50;;;16.79;55.88
46129;BME280;31860;45.186;5.790;2022-09-19T07:16:08;99341.50;;;16.87;55.83
46129;BME280;31860;45.186;5.790;2022-09-19T07:18:34;99332.47;;;16.95;55.57
46129;BME280;31860;45.186;5.790;2022-09-19T07:21:01;99333.16;;;17.03;55.46
46129;BME280;31860;45.186;5.790;2022-09-19T07:23:26;99335.72;;;17.08;55.19
46129;BME280;31860;45.186;5.790;2022-09-19T07:25:53;99340.78;;;17.17;54.92
46129;BME280;31860;45.186;5.790;2022-09-19T07:28:20;99340.59;;;17.25;54.53
46129;BME280;31860;45.186;5.790;2022-09-19T07:30:46;99343.91;;;17.33;54.34
46129;BME280;31860;45.186;5.790;2022-09-19T07:33:14;99338.34;;;17.43;54.37
46129;BME280;31860;45.186;5.790;2022-09-19T07:35:41;99331.97;;;17.52;54.17
46129;BME280;31860;45.186;5.790;2022-09-19T07:38:09;99329.97;;;17.61;53.85
46129;BME280;31860;45.186;5.790;2022-09-19T07:40:36;99332.34;;;17.72;54.05
46129;BME280;31860;45.186;5.790;2022-09-19T07:43:03;99326.81;;;17.81;53.65
46129;BME280;31860;45.186;5.790;2022-09-19T07:45:34;99331.78;;;17.91;53.51
46129;BME280;31860;45.186;5.790;2022-09-19T07:48:00;99334.22;;;17.99;53.01
46129;BME280;31860;45.186;5.790;2022-09-19T07:50:25;99334.84;;;18.09;52.90
46129;BME280;31860;45.186;5.790;2022-09-19T07:53:02;99333.75;;;18.17;52.55
46129;BME280;31860;45.186;5.790;2022-09-19T07:55:31;99331.69;;;18.27;52.52
46129;BME280;31860;45.186;5.790;2022-09-19T07:57:58;99336.72;;;18.36;52.27
46129;BME280;31860;45.186;5.790;2022-09-19T08:00:26;99328.59;;;18.43;52.31
46129;BME280;31860;45.186;5.790;2022-09-19T08:03:05;99326.53;;;18.53;51.81
46129;BME280;31860;45.186;5.790;2022-09-19T08:05:35;99327.97;;;18.63;51.59
46129;BME280;31860;45.186;5.790;2022-09-19T08:08:02;99340.13;;;18.70;51.31
46129;BME280;31860;45.186;5.790;2022-09-19T08:10:28;99332.00;;;18.76;51.13
46129;BME280;31860;45.186;5.790;2022-09-19T08:12:58;99336.16;;;18.84;50.50
46129;BME280;31860;45.186;5.790;2022-09-19T08:15:23;99336.78;;;18.92;50.67
46129;BME280;31860;45.186;5.790;2022-09-19T08:18:05;99338.38;;;18.98;49.96
46129;BME280;31860;45.186;5.790;2022-09-19T08:20:33;99330.19;;;19.06;49.96
46129;BME280;31860;45.186;5.790;2022-09-19T08:23:06;99329.06;;;19.13;49.90
46129;BME280;31860;45.186;5.790;2022-09-19T08:25:34;99334.13;;;19.20;49.73
46129;BME280;31860;45.186;5.790;2022-09-19T08:28:00;99337.31;;;19.30;49.43
46129;BME280;31860;45.186;5.790;2022-09-19T08:30:27;99337.06;;;19.39;49.55
46129;BME280;31860;45.186;5.790;2022-09-19T08:32:53;99334.16;;;19.46;49.37
46129;BME280;31860;45.186;5.790;2022-09-19T08:35:21;99333.00;;;19.55;49.09
46129;BME280;31860;45.186;5.790;2022-09-19T08:37:47;99330.09;;;19.61;48.74
46129;BME280;31860;45.186;5.790;2022-09-19T08:40:20;99328.00;;;19.70;48.59
46129;BME280;31860;45.186;5.790;2022-09-19T08:48:18;99320.03;;;19.97;47.50
46129;BME280;31860;45.186;5.790;2022-09-19T08:50:56;99320.53;;;20.06;47.18
46129;BME280;31860;45.186;5.790;2022-09-19T08:53:28;99322.00;;;20.15;47.20
46129;BME280;31860;45.186;5.790;2022-09-19T08:55:57;99319.03;;;20.24;46.92
46129;BME280;31860;45.186;5.790;2022-09-19T08:58:28;99319.63;;;20.32;46.91
46129;BME280;31860;45.186;5.790;2022-09-19T09:00:56;99313.16;;;20.39;47.15
46129;BME280;31860;45.186;5.790;2022-09-19T09:03:30;99312.06;;;20.44;45.86
46129;BME280;31860;45.186;5.790;2022-09-19T09:06:37;99313.53;;;20.53;45.30
46129;BME280;31860;45.186;5.790;2022-09-19T09:09:21;99316.84;;;20.58;45.99
46129;BME280;31860;45.186;5.790;2022-09-19T09:12:03;99323.78;;;20.62;45.35
46129;BME280;31860;45.186;5.790;2022-09-19T09:17:34;99317.19;;;20.72;45.18
46129;BME280;31860;45.186;5.790;2022-09-19T09:20:31;99323.94;;;20.81;44.34
46129;BME280;31860;45.186;5.790;2022-09-19T09:23:12;99313.97;;;20.86;44.50
46129;BME280;31860;45.186;5.790;2022-09-19T09:25:47;99311.16;;;20.90;44.91
46129;BME280;31860;45.186;5.790;2022-09-19T09:28:27;99318.00;;;20.96;44.96
46129;BME280;31860;45.186;5.790;2022-09-19T09:34:14;99305.94;;;21.10;43.61
46129;BME280;31860;45.186;5.790;2022-09-19T09:39:21;99301.81;;;21.25;44.81
46129;BME280;31860;45.186;5.790;2022-09-19T09:41:54;99300.59;;;21.32;44.06
46129;BME280;31860;45.186;5.790;2022-09-19T09:44:40;99299.34;;;21.40;44.84
46129;BME280;31860;45.186;5.790;2022-09-19T09:47:21;99299.81;;;21.50;43.59
46129;BME280;31860;45.186;5.790;2022-09-19T09:49:53;99292.41;;;21.58;44.09
46129;BME280;31860;45.186;5.790;2022-09-19T09:52:36;99290.28;;;21.66;42.70
46129;BME280;31860;45.186;5.790;2022-09-19T10:00:33;99288.25;;;21.93;42.78
46129;BME280;31860;45.186;5.790;2022-09-19T10:03:45;99281.63;;;22.01;41.77
46129;BME280;31860;45.186;5.790;2022-09-19T10:06:23;99271.63;;;22.06;41.69
46129;BME280;31860;45.186;5.790;2022-09-19T10:09:10;99266.91;;;22.13;41.71
46129;BME280;31860;45.186;5.790;2022-09-19T10:12:00;99261.16;;;22.22;40.86
46129;BME280;31860;45.186;5.790;2022-09-19T10:14:32;99261.78;;;22.28;42.02
46129;BME280;31860;45.186;5.790;2022-09-19T10:17:01;99260.47;;;22.37;42.13
46129;BME280;31860;45.186;5.790;2022-09-19T10:19:35;99265.44;;;22.44;40.61
46129;BME280;31860;45.186;5.790;2022-09-19T10:22:02;99257.09;;;22.52;41.74
46129;BME280;31860;45.186;5.790;2022-09-19T10:24:50;99257.53;;;22.62;40.24
46129;BME280;31860;45.186;5.790;2022-09-19T10:29:55;99265.75;;;22.76;40.43
46129;BME280;31860;45.186;5.790;2022-09-19T10:32:34;99268.09;;;22.82;39.92
46129;BME280;31860;45.186;5.790;2022-09-19T10:37:53;99251.69;;;22.91;40.35
46129;BME280;31860;45.186;5.790;2022-09-19T10:40:19;99247.00;;;22.96;40.55
46129;BME280;31860;45.186;5.790;2022-09-19T10:42:45;99244.09;;;23.00;40.23
46129;BME280;31860;45.186;5.790;2022-09-19T10:45:34;99241.91;;;23.08;38.15
46129;BME280;31860;45.186;5.790;2022-09-19T10:48:09;99237.22;;;23.13;38.80
46129;BME280;31860;45.186;5.790;2022-09-19T10:50:44;99240.44;;;23.20;38.71
46129;BME280;31860;45.186;5.790;2022-09-19T10:53:18;99232.91;;;23.28;39.22
46129;BME280;31860;45.186;5.790;2022-09-19T10:55:44;99240.47;;;23.37;39.93
46129;BME280;31860;45.186;5.790;2022-09-19T10:58:16;99239.06;;;23.47;38.50
46129;BME280;31860;45.186;5.790;2022-09-19T11:00:58;99237.81;;;23.54;37.53
46129;BME280;31860;45.186;5.790;2022-09-19T11:03:32;99226.03;;;23.58;38.19
46129;BME280;31860;45.186;5.790;2022-09-19T11:08:46;99227.22;;;23.70;38.56
46129;BME280;31860;45.186;5.790;2022-09-19T11:11:29;99231.28;;;23.77;37.79
46129;BME280;31860;45.186;5.790;2022-09-19T11:14:27;99230.09;;;23.82;38.53
46129;BME280;31860;45.186;5.790;2022-09-19T11:34:08;99229.44;;;24.11;37.88
46129;BME280;31860;45.186;5.790;2022-09-19T11:36:46;99219.34;;;24.16;37.47
46129;BME280;31860;45.186;5.790;2022-09-19T11:39:29;99219.13;;;24.21;37.40
46129;BME280;31860;45.186;5.790;2022-09-19T11:42:44;99217.19;;;24.23;38.13
46129;BME280;31860;45.186;5.790;2022-09-19T11:50:29;99204.47;;;24.28;37.65
46129;BME280;31860;45.186;5.790;2022-09-19T12:10:57;99190.41;;;24.56;37.64
46129;BME280;31860;45.186;5.790;2022-09-19T12:13:11;99182.16;;;24.60;36.67
46129;BME280;31860;45.186;5.790;2022-09-19T12:15:45;99179.22;;;24.65;36.43
46129;BME280;31860;45.186;5.790;2022-09-19T12:18:17;99176.47;;;24.66;36.97
46129;BME280;31860;45.186;5.790;2022-09-19T12:20:50;99165.59;;;24.69;36.42
46129;BME280;31860;45.186;5.790;2022-09-19T12:23:43;99165.50;;;24.71;35.08
46129;BME280;31860;45.186;5.790;2022-09-19T12:26:33;99158.19;;;24.74;35.66
46129;BME280;31860;45.186;5.790;2022-09-19T12:29:14;99150.09;;;24.76;35.00
46129;BME280;31860;45.186;5.790;2022-09-19T12:31:46;99152.59;;;24.79;36.96
46129;BME280;31860;45.186;5.790;2022-09-19T12:34:48;99146.22;;;24.81;37.42
46129;BME280;31860;45.186;5.790;2022-09-19T12:37:30;99153.03;;;24.87;36.64
46129;BME280;31860;45.186;5.790;2022-09-19T12:40:04;99151.28;;;24.86;35.17
46129;BME280;31860;45.186;5.790;2022-09-19T12:45:24;99145.94;;;24.86;37.22
46129;BME280;31860;45.186;5.790;2022-09-19T12:50:44;99131.44;;;24.90;36.67
46129;BME280;31860;45.186;5.790;2022-09-19T12:56:11;99137.47;;;24.93;35.66
46129;BME280;31860;45.186;5.790;2022-09-19T13:01:33;99137.66;;;24.90;35.50
46129;BME280;31860;45.186;5.790;2022-09-19T13:04:11;99133.44;;;24.86;34.12
46129;BME280;31860;45.186;5.790;2022-09-19T13:06:47;99126.66;;;24.81;35.02
46129;BME280;31860;45.186;5.790;2022-09-19T13:11:58;99130.94;;;24.68;34.43
46129;BME280;31860;45.186;5.790;2022-09-19T13:14:40;99126.88;;;24.61;33.83
46129;BME280;31860;45.186;5.790;2022-09-19T13:17:10;99125.44;;;24.55;34.53
46129;BME280;31860;45.186;5.790;2022-09-19T13:19:56;99116.16;;;24.47;34.91
46129;BME280;31860;45.186;5.790;2022-09-19T13:22:50;99117.47;;;24.39;33.44
46129;BME280;31860;45.186;5.790;2022-09-19T13:25:35;99117.03;;;24.31;33.05
46129;BME280;31860;45.186;5.790;2022-09-19T13:33:41;99120.75;;;24.13;34.17
46129;BME280;31860;45.186;5.790;2022-09-19T13:36:12;99121.88;;;24.09;34.87
46129;BME280;31860;45.186;5.790;2022-09-19T13:38:43;99107.84;;;24.06;34.93
46129;BME280;31860;45.186;5.790;2022-09-19T13:41:16;99109.78;;;24.02;34.43
46129;BME280;31860;45.186;5.790;2022-09-19T13:43:59;99110.81;;;24.00;33.85
46129;BME280;31860;45.186;5.790;2022-09-19T13:49:15;99104.78;;;23.96;34.64
46129;BME280;31860;45.186;5.790;2022-09-19T13:51:52;99105.72;;;23.95;34.47
46129;BME280;31860;45.186;5.790;2022-09-19T13:57:15;99109.41;;;23.93;34.32
46129;BME280;31860;45.186;5.790;2022-09-19T14:02:21;99109.41;;;23.93;35.53
46129;BME280;31860;45.186;5.790;2022-09-19T14:10:49;99090.22;;;23.86;34.63
46129;BME280;31860;45.186;5.790;2022-09-19T14:24:05;99093.41;;;23.77;33.69
46129;BME280;31860;45.186;5.790;2022-09-19T14:26:51;99085.53;;;23.74;33.55
46129;BME280;31860;45.186;5.790;2022-09-19T14:29:32;99078.59;;;23.72;32.60
46129;BME280;31860;45.186;5.790;2022-09-19T14:43:14;99070.38;;;23.59;32.39
46129;BME280;31860;45.186;5.790;2022-09-19T14:49:13;99069.88;;;23.52;32.75
46129;BME280;31860;45.186;5.790;2022-09-19T14:51:52;99069.19;;;23.49;32.95
46129;BME280;31860;45.186;5.790;2022-09-19T14:57:18;99067.63;;;23.45;32.83
46129;BME280;31860;45.186;5.790;2022-09-19T14:59:48;99062.38;;;23.43;33.71
46129;BME280;31860;45.186;5.790;2022-09-19T15:02:31;99066.06;;;23.41;32.20
46129;BME280;31860;45.186;5.790;2022-09-19T15:05:28;99060.81;;;23.39;32.66
46129;BME280;31860;45.186;5.790;2022-09-19T15:07:54;99068.94;;;23.36;33.85
46129;BME280;31860;45.186;5.790;2022-09-19T15:12:48;99069.22;;;23.32;33.60
46129;BME280;31860;45.186;5.790;2022-09-19T15:15:15;99070.19;;;23.29;33.61
46129;BME280;31860;45.186;5.790;2022-09-19T15:17:41;99072.94;;;23.28;33.53
46129;BME280;31860;45.186;5.790;2022-09-19T15:22:34;99062.44;;;23.25;33.63
46129;BME280;31860;45.186;5.790;2022-09-19T15:25:04;99074.13;;;23.22;33.74
46129;BME280;31860;45.186;5.790;2022-09-19T15:27:35;99064.41;;;23.21;33.85
46129;BME280;31860;45.186;5.790;2022-09-19T15:30:22;99068.13;;;23.19;33.39
46129;BME280;31860;45.186;5.790;2022-09-19T15:32:51;99070.00;;;23.17;33.67
46129;BME280;31860;45.186;5.790;2022-09-19T15:35:18;99066.56;;;23.15;34.20
46129;BME280;31860;45.186;5.790;2022-09-19T15:37:45;99071.97;;;23.13;34.05
46129;BME280;31860;45.186;5.790;2022-09-19T15:40:22;99080.03;;;23.12;33.83
46129;BME280;31860;45.186;5.790;2022-09-19T15:42:49;99078.41;;;23.09;33.93
46129;BME280;31860;45.186;5.790;2022-09-19T15:47:58;99081.22;;;23.06;33.78
46129;BME280;31860;45.186;5.790;2022-09-19T15:50:30;99079.59;;;23.04;33.98
46129;BME280;31860;45.186;5.790;2022-09-19T15:52:57;99072.69;;;23.00;33.80
46129;BME280;31860;45.186;5.790;2022-09-19T15:55:25;99077.16;;;22.99;33.84
46129;BME280;31860;45.186;5.790;2022-09-19T15:58:00;99079.91;;;22.98;33.96
46129;BME280;31860;45.186;5.790;2022-09-19T16:00:27;99085.31;;;22.96;33.84
46129;BME280;31860;45.186;5.790;2022-09-19T16:03:02;99085.38;;;22.95;33.89
46129;BME280;31860;45.186;5.790;2022-09-19T16:05:34;99087.28;;;22.93;34.20
46129;BME280;31860;45.186;5.790;2022-09-19T16:08:02;99088.19;;;22.92;34.25
46129;BME280;31860;45.186;5.790;2022-09-19T16:10:48;99089.22;;;22.89;34.24
46129;BME280;31860;45.186;5.790;2022-09-19T16:13:37;99089.28;;;22.88;34.16